KMKL

Mc Kellar-Sipes Regional Airport

Jackson, Tennessee, USA
METAR KMKL 160053Z AUTO 33010KT 10SM OVC005 09/08 A3002 RMK AO2 SLP165 T00890078
Observed Flight Rules
Dec-16 @ 00:53 UTC (23 minutes ago) Instrument Flight Rules
Wind Visibility Clouds
330° at 10 knots 10 miles
  • Overcast at 500' AGL
Temperatures Readings
Current 9°C / 48°F
Dewpoint 8°C / 46°F
Humidity 94%
Altimeter 30.02" Hg
Pressure 1016.5 hPa
Elevation 128
METAR KMKL 160053Z AUTO 33010KT 10SM OVC005 09/08 A3002 RMK AO2 SLP165 T00890078
Observed Flight Rules
Dec-16 @ 00:53 UTC
(23 minutes ago)
IFR
Wind Visibility
330° at 10 knots 10 miles
Clouds
  • Overcast at 500' AGL
Temperature Dewpoint
9°C / 48°F 8°C / 46°F
Humidity Altimeter Pressure
94% 30.02" Hg 1016.5 hPa